Sarasota Bradenton International Airport
KSRQ : now visible

Airfield :











YOU CAN JOIN US ON...

 
LOGIN :

Register | Disclaimer

   EN    FR    IT 

 









Legend :    VFR   Marginal VFR   IFR   Intensive IFR   Very Intensive IFR
Visi :
Ceiling :
>= 8 km
>= 3000ft
5 to 8 km
1000 to 3000 ft
1500m to 5 km
500 to 1000 ft
800 to 1500m
200 to 500 ft
< 800m
< 200 ft
Symbols :   Thunderstorms  Fog  Heavy snow  Heavy precipitations  Wind > 20 kt






- Airport Elevation : 30 ft
- IATA code : SRQ


KSRQ - Sarasota Bradenton International

CURRENT METAR :
  • 200553Z AUTO 35009KT 10SM BKN015 18/15 A3009 RMK AO2 SLP187 T01830150 10217 20183 50001

EXPIRED METARs :
  • 200502Z AUTO 34012KT 10SM OVC010 19/17 A3009 RMK AO2 T01890167
  • 200453Z AUTO 33011KT 10SM OVC009 19/17 A3009 RMK AO2 SLP188 T01890172 402440167
  • 200353Z 33010KT 10SM OVC006 19/18 A3010 RMK AO2 SLP190 T01940183
  • 200312Z 34011G18KT 10SM BKN008 BKN019 OVC100 21/19 A3009 RMK AO2 CIG 006V011 T02060194

TAF KSRQ
Valid from the 20 at 06:00 until the 21 at 06:00 UTC


200520Z 2006/2106 33010KT P6SM FEW006 BKN012 OVC050
FM201000 01011KT P6SM SCT015 BKN250
FM201800 34011KT P6SM FEW250
FM210200 35007KT P6SM SKC



MET'MAP, your aeronautical weather chart ! - Copyright ORBIFLY December 2007 - Disclaimer

ORBIFLY MET'MAP TEAM :

Programming & Development : Alexandra Zaïnal
Concept & original design : Baudouin d'Aumeries
Assistance for programming : Marc-Olivier Méhu
Technical & hardware support : Manuel Goepfert

Contact : metmap@orbifly.com




SOURCES & CREDITS :

   NOAA       Earth
Advisory